Time;durP1;ratioP1;P1;durP2;ratioP2;P2;SDS_P1;SDS_P2;PMS_P1;PMS_P2;Temp;Humidity;BMP_temperature;BMP_pressure;BME280_temperature;BME280_humidity;BME280_pressure;Samples;Min_cycle;Max_cycle;Signal;HPM_P1;HPM_P2
2023/09/28 00:02:22;;;;;;;5.10;4.60;;;17.70;99.90;;;;;;5023942;28;20522;-75
2023/09/28 00:04:49;;;;;;;6.47;4.93;;;17.70;99.90;;;;;;5006280;28;21107;-74
2023/09/28 00:07:14;;;;;;;8.00;5.70;;;17.60;99.90;;;;;;5005075;28;20509;-74
2023/09/28 00:09:40;;;;;;;6.77;6.07;;;17.60;99.90;;;;;;5007782;28;20470;-75
2023/09/28 00:12:06;;;;;;;7.77;5.47;;;17.60;99.90;;;;;;5003806;28;20714;-75
2023/09/28 00:14:31;;;;;;;6.30;5.70;;;17.60;99.90;;;;;;4991896;28;20724;-75
2023/09/28 00:16:57;;;;;;;7.90;6.40;;;17.60;99.90;;;;;;5008297;28;20817;-75
2023/09/28 00:19:25;;;;;;;7.23;6.47;;;17.60;99.90;;;;;;5021008;28;20236;-75
2023/09/28 00:21:51;;;;;;;6.67;5.43;;;17.60;99.90;;;;;;5024771;28;20533;-76
2023/09/28 00:24:17;;;;;;;7.23;5.93;;;17.50;99.90;;;;;;5006518;28;20489;-75
2023/09/28 00:26:42;;;;;;;6.40;5.80;;;17.50;99.90;;;;;;5024393;28;20228;-75
2023/09/28 00:29:08;;;;;;;11.37;7.70;;;17.50;99.90;;;;;;5008797;28;20224;-75
2023/09/28 00:31:33;;;;;;;10.50;7.40;;;17.40;99.90;;;;;;5007567;28;20311;-75
2023/09/28 00:34:00;;;;;;;6.90;6.20;;;17.40;99.90;;;;;;4974473;28;20228;-75
2023/09/28 00:36:25;;;;;;;7.17;5.97;;;17.40;99.90;;;;;;5014014;28;20348;-75
2023/09/28 00:38:51;;;;;;;6.60;5.53;;;17.30;99.90;;;;;;4991480;28;20472;-75
2023/09/28 00:41:17;;;;;;;6.70;5.10;;;17.30;99.90;;;;;;4993794;28;20602;-75
2023/09/28 00:43:44;;;;;;;5.43;4.70;;;17.30;99.90;;;;;;4988076;28;20863;-75
2023/09/28 00:46:16;;;;;;;5.60;5.10;;;17.20;99.90;;;;;;4987571;28;20459;-75
2023/09/28 00:49:04;;;;;;;6.47;4.53;;;17.30;99.90;;;;;;4988654;28;20591;-75
2023/09/28 00:51:33;;;;;;;4.93;4.50;;;17.20;99.90;;;;;;4999041;28;20464;-74
2023/09/28 00:54:03;;;;;;;6.80;4.97;;;17.20;99.90;;;;;;5005395;28;20551;-74
2023/09/28 00:56:31;;;;;;;5.77;4.60;;;17.20;99.90;;;;;;5002905;28;20460;-74
2023/09/28 00:58:59;;;;;;;5.27;4.77;;;17.20;99.90;;;;;;4984251;28;20585;-74
2023/09/28 01:01:29;;;;;;;7.27;4.93;;;17.20;99.90;;;;;;5009158;28;20548;-73
2023/09/28 01:03:56;;;;;;;8.03;5.80;;;17.10;99.90;;;;;;5011503;28;20474;-73
2023/09/28 01:06:24;;;;;;;5.23;4.73;;;17.00;99.90;;;;;;4996116;28;20449;-74
2023/09/28 01:08:52;;;;;;;6.83;4.93;;;17.10;99.90;;;;;;4995967;28;20481;-74
2023/09/28 01:11:20;;;;;;;6.40;5.50;;;17.10;99.90;;;;;;5024830;28;20475;-73
2023/09/28 01:13:46;;;;;;;6.97;4.87;;;17.20;99.90;;;;;;5012878;28;20476;-74
2023/09/28 01:16:13;;;;;;;5.00;4.60;;;17.20;99.90;;;;;;5010363;28;20475;-74
2023/09/28 01:18:40;;;;;;;12.13;5.47;;;17.30;99.90;;;;;;5009935;28;20466;-75
2023/09/28 01:21:06;;;;;;;7.20;5.53;;;17.30;99.90;;;;;;5005511;28;20472;-73
2023/09/28 01:23:32;;;;;;;5.80;5.20;;;17.30;99.90;;;;;;4995675;28;20474;-73
2023/09/28 01:25:58;;;;;;;7.00;5.13;;;17.30;99.90;;;;;;5003386;28;20503;-76
2023/09/28 01:28:24;;;;;;;7.13;5.03;;;17.20;99.90;;;;;;4988459;28;21134;-75
2023/09/28 01:30:50;;;;;;;4.67;4.27;;;17.20;99.90;;;;;;5008060;28;20479;-75
2023/09/28 01:33:16;;;;;;;5.20;4.70;;;17.20;99.90;;;;;;5009273;28;20224;-72
2023/09/28 01:35:41;;;;;;;5.03;4.57;;;17.10;99.90;;;;;;5027157;28;21527;-73
2023/09/28 01:38:30;;;;;;;5.67;4.80;;;17.10;99.90;;;;;;5026759;28;20944;-74
2023/09/28 01:40:56;;;;;;;5.33;4.73;;;17.20;99.90;;;;;;5006678;28;20845;-74
2023/09/28 01:43:22;;;;;;;7.50;5.50;;;17.20;99.90;;;;;;5007250;28;20438;-75
2023/09/28 01:45:49;;;;;;;6.83;5.90;;;17.10;99.90;;;;;;5027893;28;20729;-75
2023/09/28 01:48:15;;;;;;;6.93;5.13;;;17.00;99.90;;;;;;5007525;28;20224;-73
2023/09/28 01:50:41;;;;;;;8.23;5.40;;;17.10;99.90;;;;;;4992416;28;20471;-75
2023/09/28 01:53:06;;;;;;;6.20;5.20;;;17.10;99.90;;;;;;5027048;28;21055;-75
2023/09/28 01:55:33;;;;;;;5.73;5.03;;;17.10;99.90;;;;;;5010092;28;20220;-74
2023/09/28 01:57:59;;;;;;;5.50;5.00;;;17.10;99.90;;;;;;5026784;28;20228;-75
2023/09/28 02:00:26;;;;;;;6.20;5.40;;;17.00;99.90;;;;;;5007863;28;20532;-74
2023/09/28 02:02:56;;;;;;;7.60;5.90;;;17.00;99.90;;;;;;5010297;28;20565;-74
2023/09/28 02:05:22;;;;;;;7.90;6.70;;;17.00;99.90;;;;;;5008045;28;20479;-75
2023/09/28 02:07:49;;;;;;;7.73;6.40;;;17.00;99.90;;;;;;4993146;28;20459;-75
2023/09/28 02:10:15;;;;;;;5.90;5.40;;;17.00;99.90;;;;;;5011651;28;20541;-73
2023/09/28 02:12:44;;;;;;;8.37;5.73;;;17.00;99.90;;;;;;5010137;28;20595;-74
2023/09/28 02:15:15;;;;;;;7.60;5.80;;;17.00;99.90;;;;;;4989376;28;20491;-74
2023/09/28 02:17:42;;;;;;;5.73;4.97;;;16.90;99.90;;;;;;5009933;28;20459;-74
2023/09/28 02:20:09;;;;;;;8.47;5.20;;;17.00;99.90;;;;;;5006639;28;20552;-74
2023/09/28 02:22:44;;;;;;;5.60;5.10;;;17.00;99.90;;;;;;5007157;28;20463;-75
2023/09/28 02:25:15;;;;;;;6.17;5.30;;;16.90;99.90;;;;;;5009269;28;20494;-75
2023/09/28 02:27:42;;;;;;;5.90;5.07;;;17.00;99.90;;;;;;5026528;28;20589;-76
2023/09/28 02:30:11;;;;;;;7.00;5.50;;;16.90;99.90;;;;;;5007304;28;20507;-74
2023/09/28 02:32:39;;;;;;;5.77;5.27;;;16.80;99.90;;;;;;5009806;28;20459;-73
2023/09/28 02:35:07;;;;;;;4.57;4.17;;;16.90;99.90;;;;;;5010234;28;20554;-75
2023/09/28 02:37:34;;;;;;;5.30;4.80;;;16.90;99.90;;;;;;5026434;28;20474;-75
2023/09/28 02:40:02;;;;;;;4.50;4.10;;;16.90;99.90;;;;;;5010761;28;21233;-74
2023/09/28 02:42:27;;;;;;;5.03;4.53;;;16.90;99.90;;;;;;5008935;28;20514;-75
2023/09/28 02:44:53;;;;;;;5.10;4.60;;;16.90;99.90;;;;;;5013416;28;20478;-73
2023/09/28 02:47:19;;;;;;;4.13;3.83;;;16.90;99.90;;;;;;5025666;28;20499;-75
2023/09/28 02:49:46;;;;;;;6.03;4.90;;;16.90;99.90;;;;;;5012361;28;20239;-75
2023/09/28 02:52:12;;;;;;;5.40;4.90;;;16.90;99.90;;;;;;5007222;28;20322;-75
2023/09/28 02:54:38;;;;;;;5.93;5.40;;;16.90;99.90;;;;;;5010380;28;20460;-75
2023/09/28 02:57:03;;;;;;;5.77;4.93;;;16.90;99.90;;;;;;5002271;28;20840;-73
2023/09/28 02:59:29;;;;;;;6.70;5.70;;;16.90;99.90;;;;;;5004564;28;20982;-74
2023/09/28 03:01:55;;;;;;;7.17;6.47;;;16.90;99.90;;;;;;5008663;28;20927;-75
2023/09/28 03:04:20;;;;;;;7.40;5.90;;;16.80;99.90;;;;;;4988074;28;20804;-75
2023/09/28 03:06:46;;;;;;;6.73;6.00;;;16.80;99.90;;;;;;4990432;28;20735;-74
2023/09/28 03:09:12;;;;;;;7.37;6.13;;;16.80;99.90;;;;;;5024276;28;20225;-74
2023/09/28 03:11:41;;;;;;;8.90;6.40;;;16.80;99.90;;;;;;5010482;28;20220;-75
2023/09/28 03:14:06;;;;;;;6.87;6.17;;;16.80;99.90;;;;;;5006271;28;20478;-76
2023/09/28 03:16:33;;;;;;;11.47;7.03;;;16.80;99.90;;;;;;5004594;28;20952;-73
2023/09/28 03:19:00;;;;;;;6.20;5.60;;;16.80;99.90;;;;;;5005583;28;20546;-75
2023/09/28 03:21:30;;;;;;;6.90;6.20;;;16.80;99.90;;;;;;5007493;28;20471;-75
2023/09/28 03:23:59;;;;;;;7.10;6.40;;;16.80;99.90;;;;;;5007341;28;20483;-74
2023/09/28 03:26:26;;;;;;;6.40;5.77;;;16.80;99.90;;;;;;5006137;28;20461;-73
2023/09/28 03:28:52;;;;;;;8.00;6.17;;;16.80;99.90;;;;;;5006849;28;20551;-74
2023/09/28 03:31:18;;;;;;;8.00;6.27;;;16.80;99.90;;;;;;5006088;28;20479;-74
2023/09/28 03:33:44;;;;;;;9.23;6.73;;;16.80;99.90;;;;;;5010126;28;20226;-75
2023/09/28 03:36:10;;;;;;;6.80;5.90;;;16.80;99.90;;;;;;5008404;28;20231;-74
2023/09/28 03:38:36;;;;;;;7.80;5.57;;;16.80;99.90;;;;;;5007078;28;20259;-75
2023/09/28 03:41:01;;;;;;;8.37;6.40;;;16.80;99.90;;;;;;5008000;28;20462;-75
2023/09/28 03:43:27;;;;;;;5.70;4.70;;;16.80;99.90;;;;;;5000905;28;20324;-75
2023/09/28 03:45:53;;;;;;;6.40;5.47;;;16.80;99.90;;;;;;5021147;28;20723;-75
2023/09/28 03:48:18;;;;;;;6.57;5.30;;;16.80;99.90;;;;;;5005936;28;20347;-75
2023/09/28 03:50:44;;;;;;;5.30;4.40;;;16.70;99.90;;;;;;5006974;28;20234;-75
2023/09/28 03:53:09;;;;;;;5.43;4.80;;;16.70;99.90;;;;;;5007228;28;20235;-74
2023/09/28 03:55:35;;;;;;;6.00;5.13;;;16.70;99.90;;;;;;5007384;28;20244;-75
2023/09/28 03:58:01;;;;;;;4.97;4.57;;;16.70;99.90;;;;;;5009099;28;20289;-75
2023/09/28 04:00:27;;;;;;;5.77;5.00;;;16.70;99.90;;;;;;5003609;28;20917;-75
2023/09/28 04:02:53;;;;;;;6.20;4.20;;;16.70;99.90;;;;;;5006931;28;20474;-75
2023/09/28 04:05:19;;;;;;;4.93;4.23;;;16.70;99.90;;;;;;5023094;28;20814;-74
2023/09/28 04:07:46;;;;;;;7.70;5.30;;;16.60;99.90;;;;;;5008552;28;20246;-74
2023/09/28 04:10:12;;;;;;;7.73;5.30;;;16.60;99.90;;;;;;4988512;28;20236;-76
2023/09/28 04:12:38;;;;;;;4.60;4.20;;;16.60;99.90;;;;;;5007315;28;20497;-75
2023/09/28 04:15:05;;;;;;;5.80;5.00;;;16.60;99.90;;;;;;5007245;28;20228;-75
2023/09/28 04:17:31;;;;;;;6.20;4.83;;;16.60;99.90;;;;;;5005581;28;20463;-75
2023/09/28 04:19:56;;;;;;;5.20;4.70;;;16.60;99.90;;;;;;5020041;28;20483;-74
2023/09/28 04:22:22;;;;;;;7.83;4.70;;;16.60;99.90;;;;;;5008053;28;20623;-73
2023/09/28 04:24:47;;;;;;;8.10;5.33;;;16.50;99.90;;;;;;5006710;28;20339;-74
2023/09/28 04:27:13;;;;;;;5.80;5.20;;;16.50;99.90;;;;;;5006379;28;20235;-75
2023/09/28 04:29:40;;;;;;;6.40;4.30;;;16.40;99.90;;;;;;5022189;28;20221;-75
2023/09/28 04:32:05;;;;;;;11.67;4.50;;;16.40;99.90;;;;;;5008200;28;20247;-75
2023/09/28 04:34:31;;;;;;;5.30;4.47;;;16.40;99.90;;;;;;5010074;28;20459;-75
2023/09/28 04:36:57;;;;;;;4.57;4.17;;;16.40;99.90;;;;;;5011808;28;20235;-74
2023/09/28 04:39:24;;;;;;;5.30;4.43;;;16.40;99.90;;;;;;5010497;28;20228;-75
2023/09/28 04:41:57;;;;;;;8.27;5.27;;;16.30;99.90;;;;;;5010426;28;20545;-73
2023/09/28 04:44:23;;;;;;;5.30;4.53;;;16.30;99.90;;;;;;5009586;28;21011;-73
2023/09/28 04:46:50;;;;;;;4.57;4.17;;;16.30;99.90;;;;;;5026497;28;20561;-75
2023/09/28 04:49:17;;;;;;;5.30;4.80;;;16.30;99.90;;;;;;5011732;28;20244;-74
2023/09/28 04:51:42;;;;;;;5.87;5.27;;;16.30;99.90;;;;;;5011362;28;20502;-74
2023/09/28 04:54:08;;;;;;;6.00;5.40;;;16.30;99.90;;;;;;5011026;28;20465;-74
2023/09/28 04:56:34;;;;;;;9.23;5.63;;;16.30;99.90;;;;;;5010508;28;20220;-75
2023/09/28 04:58:59;;;;;;;5.37;4.63;;;16.30;99.90;;;;;;5009967;28;20221;-74
2023/09/28 05:01:25;;;;;;;10.90;5.70;;;16.30;99.90;;;;;;5006260;28;20238;-74
2023/09/28 05:03:53;;;;;;;6.67;5.87;;;16.30;99.90;;;;;;4974556;28;20228;-75
2023/09/28 05:06:19;;;;;;;7.27;5.87;;;16.30;99.90;;;;;;5011016;28;20258;-74
2023/09/28 05:08:44;;;;;;;8.60;6.27;;;16.30;99.90;;;;;;5009101;28;20459;-75
2023/09/28 05:11:10;;;;;;;7.53;6.17;;;16.30;99.90;;;;;;5026028;28;20322;-75
2023/09/28 05:13:36;;;;;;;8.07;5.73;;;16.30;99.90;;;;;;5009966;28;20255;-75
2023/09/28 05:16:02;;;;;;;8.00;5.93;;;16.30;99.90;;;;;;5003049;28;20760;-75
2023/09/28 05:18:27;;;;;;;7.00;5.30;;;16.30;99.90;;;;;;4982114;28;20221;-75
2023/09/28 05:20:53;;;;;;;6.87;5.87;;;16.30;99.90;;;;;;4995117;28;20624;-74
2023/09/28 05:23:19;;;;;;;6.93;6.07;;;16.30;99.90;;;;;;5007661;28;20268;-73
2023/09/28 05:25:44;;;;;;;10.60;6.33;;;16.30;99.90;;;;;;5010652;28;20291;-75
2023/09/28 05:28:10;;;;;;;7.50;6.47;;;16.30;99.90;;;;;;4996099;28;20222;-78
2023/09/28 05:30:36;;;;;;;8.67;7.50;;;16.30;99.90;;;;;;5011257;28;20728;-75
2023/09/28 05:33:02;;;;;;;8.40;7.50;;;16.20;99.90;;;;;;5009509;28;20256;-75
2023/09/28 05:35:29;;;;;;;7.83;6.40;;;16.20;99.90;;;;;;4990000;28;20252;-76
2023/09/28 05:37:55;;;;;;;8.27;7.03;;;16.20;99.90;;;;;;4986694;28;20467;-74
2023/09/28 05:40:21;;;;;;;9.00;7.67;;;16.20;99.90;;;;;;4980659;28;20582;-75
2023/09/28 05:42:48;;;;;;;7.33;6.53;;;16.10;99.90;;;;;;4977295;28;20506;-73
2023/09/28 05:45:14;;;;;;;7.93;6.77;;;16.20;99.90;;;;;;4974012;28;20483;-74
2023/09/28 05:47:39;;;;;;;7.30;5.47;;;16.20;99.90;;;;;;4977534;28;20481;-74
2023/09/28 05:50:07;;;;;;;8.90;6.93;;;16.20;99.90;;;;;;4977293;28;20236;-75
2023/09/28 05:52:33;;;;;;;6.90;6.20;;;16.10;99.90;;;;;;4976759;28;20346;-76
2023/09/28 05:54:59;;;;;;;7.17;6.47;;;16.10;99.90;;;;;;4978191;28;20663;-75
2023/09/28 05:57:24;;;;;;;6.83;6.00;;;16.10;99.90;;;;;;4979175;28;20250;-75
2023/09/28 05:59:50;;;;;;;6.40;5.43;;;16.10;99.90;;;;;;4979603;28;20471;-74
2023/09/28 06:02:16;;;;;;;7.13;5.63;;;16.10;99.90;;;;;;4975923;28;20225;-75
2023/09/28 06:04:42;;;;;;;6.60;6.00;;;16.10;99.90;;;;;;4978685;28;20939;-75
2023/09/28 06:07:11;;;;;;;7.87;6.27;;;16.10;99.90;;;;;;4978201;28;20481;-75
2023/09/28 06:09:38;;;;;;;6.47;5.70;;;16.10;99.90;;;;;;4977056;28;20252;-74
2023/09/28 06:12:05;;;;;;;6.17;5.50;;;16.10;99.90;;;;;;4991015;28;21336;-75
2023/09/28 06:14:30;;;;;;;8.00;5.63;;;16.10;99.90;;;;;;4992225;28;20526;-75
2023/09/28 06:16:56;;;;;;;14.17;6.00;;;16.10;99.90;;;;;;4976592;28;20572;-76
2023/09/28 06:19:22;;;;;;;6.70;6.00;;;16.00;99.90;;;;;;4972249;28;21037;-75
2023/09/28 06:21:47;;;;;;;6.23;5.63;;;15.90;99.90;;;;;;4998284;28;20216;-74
2023/09/28 06:24:13;;;;;;;6.10;5.50;;;16.00;99.90;;;;;;5021798;28;20233;-75
2023/09/28 06:26:39;;;;;;;7.33;6.30;;;16.00;99.90;;;;;;5009556;28;20220;-73
2023/09/28 06:29:04;;;;;;;9.07;6.00;;;16.00;99.90;;;;;;4976503;28;20236;-75
2023/09/28 06:31:30;;;;;;;10.77;5.87;;;16.00;99.90;;;;;;4988127;28;21177;-74
2023/09/28 06:33:56;;;;;;;9.37;6.10;;;16.00;99.90;;;;;;5002731;28;20256;-74
2023/09/28 06:36:24;;;;;;;7.73;6.50;;;16.00;99.90;;;;;;5002786;28;20248;-75
2023/09/28 06:38:50;;;;;;;6.70;6.00;;;15.90;99.90;;;;;;5001952;28;20221;-75
2023/09/28 06:41:16;;;;;;;6.97;6.27;;;15.90;99.90;;;;;;5000076;28;21090;-75
2023/09/28 06:43:43;;;;;;;8.90;6.30;;;15.90;99.90;;;;;;4998444;28;20275;-74
2023/09/28 06:46:08;;;;;;;6.60;5.67;;;16.00;99.90;;;;;;4986663;28;20470;-75
2023/09/28 06:48:35;;;;;;;9.87;6.90;;;16.00;99.90;;;;;;5004643;28;20473;-75
2023/09/28 06:51:01;;;;;;;8.83;6.57;;;16.00;99.90;;;;;;4990874;28;20782;-75
2023/09/28 06:53:27;;;;;;;9.47;6.80;;;16.00;99.90;;;;;;4988231;28;20460;-73
2023/09/28 06:55:54;;;;;;;10.07;7.07;;;16.10;99.90;;;;;;5018353;28;20470;-75
2023/09/28 06:58:22;;;;;;;12.30;7.17;;;16.10;99.90;;;;;;5007795;28;20314;-74
2023/09/28 07:00:47;;;;;;;7.03;6.27;;;16.10;99.90;;;;;;5022951;28;20501;-74
2023/09/28 07:03:13;;;;;;;9.07;6.40;;;16.20;99.90;;;;;;5022564;28;20460;-75
2023/09/28 07:05:40;;;;;;;6.50;5.80;;;16.20;99.90;;;;;;5006469;28;20240;-74
2023/09/28 07:08:06;;;;;;;7.70;5.43;;;16.30;99.90;;;;;;5003099;28;20560;-72
2023/09/28 07:10:33;;;;;;;5.67;5.03;;;16.30;99.90;;;;;;4990058;28;20482;-75
2023/09/28 07:13:04;;;;;;;6.20;5.60;;;16.40;99.90;;;;;;5023611;28;20482;-74
2023/09/28 07:15:30;;;;;;;6.70;5.83;;;16.40;99.90;;;;;;5006408;28;20923;-74
2023/09/28 07:17:56;;;;;;;7.80;6.37;;;16.40;99.90;;;;;;4986436;28;20583;-74
2023/09/28 07:20:22;;;;;;;7.67;5.87;;;16.50;99.90;;;;;;4980207;28;21373;-74
2023/09/28 07:22:48;;;;;;;7.40;6.20;;;16.60;99.90;;;;;;4965010;28;20342;-75
2023/09/28 07:25:14;;;;;;;8.20;6.53;;;16.60;99.90;;;;;;4993774;28;21076;-73
2023/09/28 07:27:44;;;;;;;7.73;5.87;;;16.60;99.90;;;;;;4993038;28;20297;-73
2023/09/28 07:30:11;;;;;;;11.30;6.60;;;16.60;99.90;;;;;;4985508;28;20475;-75
2023/09/28 07:32:37;;;;;;;11.60;7.83;;;16.70;99.90;;;;;;5004124;28;20455;-74
2023/09/28 07:35:03;;;;;;;7.40;6.53;;;16.70;99.90;;;;;;4993987;28;21246;-74
2023/09/28 07:37:29;;;;;;;7.23;6.50;;;16.70;99.90;;;;;;4994870;28;20548;-75
2023/09/28 07:39:55;;;;;;;7.70;6.90;;;16.80;99.90;;;;;;4976063;28;21109;-75
2023/09/28 07:42:21;;;;;;;7.50;6.70;;;16.80;99.90;;;;;;4977856;28;20224;-72
2023/09/28 07:44:51;;;;;;;10.57;7.13;;;16.90;99.90;;;;;;4975362;28;20236;-75
2023/09/28 07:47:18;;;;;;;8.00;5.80;;;17.00;99.90;;;;;;4979705;28;20714;-74
2023/09/28 07:49:45;;;;;;;9.47;7.00;;;17.10;99.90;;;;;;4992870;28;20606;-73
2023/09/28 07:52:11;;;;;;;7.40;6.10;;;17.20;99.90;;;;;;4980126;28;20478;-74
2023/09/28 07:54:37;;;;;;;6.90;6.23;;;17.20;99.90;;;;;;4976969;28;20463;-73
2023/09/28 07:57:04;;;;;;;7.10;6.37;;;17.20;99.90;;;;;;4977440;28;20614;-75
2023/09/28 07:59:34;;;;;;;9.30;6.67;;;17.30;99.90;;;;;;4992845;28;20546;-75
2023/09/28 08:02:00;;;;;;;11.90;7.27;;;17.40;99.90;;;;;;4993456;28;20588;-75
2023/09/28 08:04:26;;;;;;;11.23;7.03;;;17.50;99.90;;;;;;4986840;28;20835;-75
2023/09/28 08:06:53;;;;;;;6.70;6.00;;;17.60;99.90;;;;;;4976776;28;20494;-75
2023/09/28 08:09:19;;;;;;;6.60;5.83;;;17.70;99.90;;;;;;4976030;28;20234;-74
2023/09/28 08:11:48;;;;;;;6.57;5.97;;;17.80;99.90;;;;;;4981590;28;20502;-74
2023/09/28 08:14:15;;;;;;;5.90;5.20;;;17.90;99.90;;;;;;4991776;28;20483;-75
2023/09/28 08:16:45;;;;;;;8.07;5.97;;;18.00;99.90;;;;;;4980612;28;20466;-75
2023/09/28 08:19:11;;;;;;;6.13;5.53;;;18.10;99.90;;;;;;4963383;28;21150;-75
2023/09/28 08:21:38;;;;;;;6.63;5.73;;;18.40;99.90;;;;;;4978620;28;20456;-76
2023/09/28 08:24:08;;;;;;;6.73;5.30;;;19.70;99.90;;;;;;4979537;28;20475;-76
2023/09/28 08:26:38;;;;;;;5.47;4.97;;;21.30;99.90;;;;;;4996181;28;20459;-75
2023/09/28 08:29:04;;;;;;;5.50;5.00;;;21.50;99.90;;;;;;4995442;28;20470;-75
2023/09/28 08:31:31;;;;;;;5.00;4.60;;;21.40;99.90;;;;;;4973649;28;20482;-76
2023/09/28 08:34:01;;;;;;;5.60;5.10;;;20.80;99.90;;;;;;4981754;28;20220;-74
2023/09/28 08:36:27;;;;;;;4.90;4.40;;;20.30;99.90;;;;;;4959135;28;20466;-75
2023/09/28 08:38:54;;;;;;;5.13;4.50;;;20.00;99.90;;;;;;4974440;28;21193;-75
2023/09/28 08:41:43;;;;;;;5.23;4.83;;;20.00;99.90;;;;;;4978570;28;21080;-75
2023/09/28 08:44:10;;;;;;;5.27;4.30;;;19.80;99.90;;;;;;4975853;28;20486;-75
2023/09/28 08:46:39;;;;;;;5.10;4.60;;;19.70;99.90;;;;;;4978905;28;20471;-74
2023/09/28 08:49:10;;;;;;;5.10;4.70;;;19.90;99.90;;;;;;4980818;28;20466;-76
2023/09/28 08:51:37;;;;;;;4.90;4.50;;;19.90;99.90;;;;;;4971436;28;20459;-75
2023/09/28 08:54:05;;;;;;;5.30;4.60;;;20.20;99.90;;;;;;4991305;28;20483;-74
2023/09/28 08:56:42;;;;;;;4.90;4.40;;;20.30;99.90;;;;;;4993975;28;20467;-75
2023/09/28 08:59:09;;;;;;;5.30;4.80;;;20.50;99.90;;;;;;4980311;28;20459;-75
2023/09/28 09:01:36;;;;;;;5.20;4.13;;;20.70;99.90;;;;;;4995082;28;20478;-73
2023/09/28 09:04:03;;;;;;;4.70;4.30;;;20.70;99.90;;;;;;4978656;28;20514;-75
2023/09/28 09:06:30;;;;;;;5.13;4.50;;;20.90;99.90;;;;;;4971576;28;21084;-74
2023/09/28 09:09:01;;;;;;;5.40;4.90;;;20.80;99.90;;;;;;4980043;28;20536;-76
2023/09/28 09:11:31;;;;;;;4.50;4.10;;;20.80;99.90;;;;;;4972079;28;20459;-75
2023/09/28 09:13:57;;;;;;;10.50;5.43;;;20.90;99.90;;;;;;4972197;28;20482;-76
2023/09/28 09:16:27;;;;;;;7.90;4.50;;;20.90;99.90;;;;;;4968830;28;20549;-75
2023/09/28 09:18:55;;;;;;;6.03;3.80;;;21.20;99.90;;;;;;4972363;28;20463;-75
2023/09/28 09:21:21;;;;;;;4.63;4.23;;;21.40;99.90;;;;;;4969207;28;20475;-76
2023/09/28 09:24:04;;;;;;;4.70;4.30;;;21.40;99.90;;;;;;4989731;28;20475;-76
2023/09/28 09:26:42;;;;;;;5.80;5.20;;;21.80;99.90;;;;;;4981464;28;20470;-75
2023/09/28 09:29:12;;;;;;;4.20;3.80;;;21.70;99.90;;;;;;4978755;28;20482;-76
2023/09/28 09:31:45;;;;;;;4.83;4.43;;;21.50;99.90;;;;;;4973684;28;20577;-76
2023/09/28 09:34:17;;;;;;;4.27;3.87;;;21.50;99.90;;;;;;4969592;28;20624;-76
2023/09/28 09:36:54;;;;;;;5.53;4.43;;;21.80;99.90;;;;;;4980684;28;21303;-76
2023/09/28 09:39:26;;;;;;;5.03;4.60;;;22.00;99.90;;;;;;4989555;28;20616;-75
2023/09/28 09:41:53;;;;;;;4.37;4.07;;;22.10;99.90;;;;;;4994909;28;22167;-76
2023/09/28 09:44:27;;;;;;;5.37;4.23;;;22.20;99.90;;;;;;4978013;28;20474;-75
2023/09/28 09:46:54;;;;;;;5.73;4.90;;;22.30;99.90;;;;;;4979427;28;20475;-75
2023/09/28 09:49:23;;;;;;;4.60;4.20;;;22.60;99.90;;;;;;4976766;28;21073;-76
2023/09/28 09:51:49;;;;;;;4.60;4.20;;;22.70;99.90;;;;;;4977238;28;20470;-76
2023/09/28 09:54:19;;;;;;;5.10;4.60;;;22.80;99.90;;;;;;4992454;28;20800;-76
2023/09/28 09:56:47;;;;;;;4.87;4.47;;;22.80;99.90;;;;;;4976926;28;20314;-76
2023/09/28 09:59:17;;;;;;;5.30;4.90;;;22.90;99.90;;;;;;4980225;28;20470;-76
2023/09/28 10:01:48;;;;;;;4.30;4.00;;;23.10;99.90;;;;;;4979129;28;20554;-75
2023/09/28 10:04:18;;;;;;;4.37;3.97;;;23.10;99.90;;;;;;4976517;28;21550;-76
2023/09/28 10:06:48;;;;;;;5.27;4.77;;;23.20;99.90;;;;;;4978104;28;20471;-76
2023/09/28 10:09:21;;;;;;;4.63;4.20;;;23.20;99.90;;;;;;4979129;28;20544;-76
2023/09/28 10:11:49;;;;;;;4.70;4.30;;;23.40;99.90;;;;;;4990396;28;20471;-77
2023/09/28 10:14:18;;;;;;;4.73;4.30;;;23.60;99.90;;;;;;4977808;28;20470;-76
2023/09/28 10:16:48;;;;;;;4.50;4.13;;;23.70;99.90;;;;;;4993195;28;20483;-76
2023/09/28 10:19:19;;;;;;;4.70;4.30;;;23.80;99.90;;;;;;4962773;28;20569;-76
2023/09/28 10:21:45;;;;;;;32.90;5.20;;;23.80;99.90;;;;;;4978370;28;20463;-76
2023/09/28 10:24:13;;;;;;;4.37;3.97;;;23.70;99.90;;;;;;4977196;28;20462;-76
2023/09/28 10:26:50;;;;;;;4.37;3.87;;;23.80;99.90;;;;;;4961942;28;21560;-75
2023/09/28 10:29:32;;;;;;;4.43;4.13;;;23.90;99.90;;;;;;4980038;28;20664;-76
2023/09/28 10:31:59;;;;;;;4.90;4.50;;;23.90;99.90;;;;;;4976723;28;20472;-76
2023/09/28 10:34:29;;;;;;;9.23;4.27;;;24.10;99.90;;;;;;4978940;28;21396;-76
2023/09/28 10:37:07;;;;;;;3.67;3.37;;;24.40;99.90;;;;;;4979515;28;20979;-76
2023/09/28 10:39:33;;;;;;;4.23;3.93;;;24.60;99.90;;;;;;4976648;28;20477;-76
2023/09/28 10:42:11;;;;;;;5.17;4.67;;;24.80;99.90;;;;;;4977209;28;20862;-76
2023/09/28 10:44:52;;;;;;;4.63;4.23;;;24.50;99.90;;;;;;4978239;28;20266;-76
2023/09/28 10:47:19;;;;;;;6.83;4.30;;;24.80;99.90;;;;;;4979430;28;21700;-76
2023/09/28 10:49:45;;;;;;;4.60;4.20;;;25.20;99.90;;;;;;4992338;28;20542;-76
2023/09/28 10:52:11;;;;;;;4.57;4.17;;;25.40;99.90;;;;;;4978695;28;20463;-76
2023/09/28 10:54:38;;;;;;;4.50;4.00;;;25.50;99.90;;;;;;4975979;28;20477;-76
2023/09/28 10:57:04;;;;;;;4.23;3.90;;;25.50;99.90;;;;;;4978756;28;20231;-76
2023/09/28 10:59:29;;;;;;;4.20;3.73;;;25.50;99.90;;;;;;4991879;28;21209;-76
2023/09/28 11:01:55;;;;;;;4.67;4.27;;;25.50;99.90;;;;;;4975004;28;20355;-77
2023/09/28 11:04:22;;;;;;;8.10;3.53;;;25.50;99.90;;;;;;4977426;28;20231;-76
2023/09/28 11:06:49;;;;;;;4.70;4.27;;;25.50;99.90;;;;;;4971785;28;21628;-76
2023/09/28 11:09:19;;;;;;;4.43;4.03;;;25.80;99.90;;;;;;4976468;28;20459;-76
2023/09/28 11:11:45;;;;;;;3.60;3.30;;;26.10;99.90;;;;;;4981165;28;20465;-76
2023/09/28 11:14:11;;;;;;;4.13;3.73;;;26.20;99.90;;;;;;4975014;28;20470;-76
2023/09/28 11:16:42;;;;;;;4.50;4.17;;;26.30;99.90;;;;;;4976816;28;20587;-76
2023/09/28 11:19:11;;;;;;;4.20;3.43;;;26.20;99.90;;;;;;4979753;28;21046;-76
2023/09/28 11:21:37;;;;;;;4.20;3.87;;;26.30;99.90;;;;;;4976234;28;20458;-75
2023/09/28 11:24:04;;;;;;;5.03;3.33;;;26.50;99.90;;;;;;4991332;28;20560;-76
2023/09/28 11:26:31;;;;;;;7.47;3.60;;;26.60;99.90;;;;;;4973651;28;20467;-76
2023/09/28 11:28:58;;;;;;;3.70;3.40;;;26.70;99.90;;;;;;4966048;28;20459;-77
2023/09/28 11:31:25;;;;;;;6.80;3.57;;;26.70;99.90;;;;;;4975234;28;20585;-77
2023/09/28 11:33:52;;;;;;;5.23;4.70;;;26.80;99.90;;;;;;4976578;28;20450;-75
2023/09/28 11:36:22;;;;;;;4.63;4.23;;;26.80;99.90;;;;;;4978364;28;21926;-77
2023/09/28 11:38:51;;;;;;;3.73;3.43;;;26.70;99.90;;;;;;4977186;28;21730;-77
2023/09/28 11:41:18;;;;;;;4.47;3.90;;;27.00;99.90;;;;;;4986977;28;20485;-76
2023/09/28 11:44:02;;;;;;;4.17;3.73;;;27.30;99.90;;;;;;4974436;28;20593;-75
2023/09/28 11:46:31;;;;;;;4.00;3.70;;;27.20;99.90;;;;;;4974485;28;20549;-76
2023/09/28 11:49:04;;;;;;;4.07;3.70;;;27.40;99.90;;;;;;4972606;28;20822;-77
2023/09/28 11:51:33;;;;;;;5.40;4.80;;;27.40;99.90;;;;;;4971556;28;20559;-77
2023/09/28 11:54:01;;;;;;;3.97;3.57;;;27.40;99.90;;;;;;4976184;28;20597;-76
2023/09/28 11:56:27;;;;;;;3.53;3.20;;;27.50;99.90;;;;;;4978163;28;20713;-77
2023/09/28 11:58:53;;;;;;;4.50;3.67;;;27.50;99.90;;;;;;4974616;28;20598;-76
2023/09/28 12:01:19;;;;;;;3.55;3.25;;;27.50;99.90;;;;;;4972161;28;20354;-77
2023/09/28 12:03:47;;;;;;;3.90;3.60;;;27.60;99.90;;;;;;4978242;28;20212;-75
2023/09/28 12:06:14;;;;;;;5.50;3.73;;;27.80;99.90;;;;;;4976061;28;20954;-76
2023/09/28 12:08:40;;;;;;;4.30;4.00;;;28.00;99.90;;;;;;4970777;28;20483;-76
2023/09/28 12:11:05;;;;;;;3.50;3.23;;;27.70;99.90;;;;;;4993652;28;21463;-76
2023/09/28 12:13:31;;;;;;;4.23;3.60;;;27.60;99.90;;;;;;4978168;28;20562;-75
2023/09/28 12:15:57;;;;;;;6.05;3.97;;;27.90;99.90;;;;;;4992183;28;20358;-76
2023/09/28 12:18:22;;;;;;;3.45;2.80;;;28.00;99.90;;;;;;4977748;28;20326;-76
2023/09/28 12:20:48;;;;;;;7.30;3.90;;;28.20;99.90;;;;;;4978152;28;20240;-76
2023/09/28 12:23:14;;;;;;;3.88;3.58;;;28.30;99.90;;;;;;4975456;28;20457;-77
2023/09/28 12:25:40;;;;;;;3.92;3.63;;;28.30;99.90;;;;;;4975575;28;20244;-76
2023/09/28 12:28:07;;;;;;;4.32;3.92;;;28.30;99.90;;;;;;4978384;28;20222;-77
2023/09/28 12:30:33;;;;;;;4.10;3.70;;;28.40;99.90;;;;;;4976668;28;20925;-75
2023/09/28 12:32:59;;;;;;;4.18;3.78;;;28.30;99.90;;;;;;4991156;28;20356;-76
2023/09/28 12:35:26;;;;;;;4.10;3.72;;;28.00;99.90;;;;;;4976757;28;20227;-76
2023/09/28 12:37:53;;;;;;;6.40;3.67;;;27.90;99.90;;;;;;4994269;28;20314;-76
2023/09/28 12:40:19;;;;;;;3.83;3.53;;;28.10;99.90;;;;;;4977035;28;20342;-76
2023/09/28 12:42:45;;;;;;;4.75;4.00;;;28.20;99.90;;;;;;4970924;28;20228;-76
2023/09/28 12:45:11;;;;;;;4.22;3.80;;;28.30;99.90;;;;;;4976712;28;20331;-76
2023/09/28 12:47:37;;;;;;;5.60;5.18;;;28.20;99.90;;;;;;4961530;28;20235;-77